sensor_id;sensor_type;location;lat;lon;timestamp;P1;durP1;ratioP1;P2;durP2;ratioP2
38629;SDS011;24384;51.988;4.644;2022-09-09T00:02:01;8.65;;;4.82;;
38629;SDS011;24384;51.988;4.644;2022-09-09T00:04:38;6.90;;;4.38;;
38629;SDS011;24384;51.988;4.644;2022-09-09T00:07:24;8.55;;;4.97;;
38629;SDS011;24384;51.988;4.644;2022-09-09T00:10:46;10.48;;;4.85;;
38629;SDS011;24384;51.988;4.644;2022-09-09T00:13:10;11.07;;;4.90;;
38629;SDS011;24384;51.988;4.644;2022-09-09T00:15:43;10.70;;;5.10;;
38629;SDS011;24384;51.988;4.644;2022-09-09T00:28:19;12.80;;;5.43;;
38629;SDS011;24384;51.988;4.644;2022-09-09T00:30:48;11.05;;;5.75;;
38629;SDS011;24384;51.988;4.644;2022-09-09T00:33:13;14.40;;;6.45;;
38629;SDS011;24384;51.988;4.644;2022-09-09T00:35:53;10.60;;;6.28;;
38629;SDS011;24384;51.988;4.644;2022-09-09T00:38:37;11.85;;;6.75;;
38629;SDS011;24384;51.988;4.644;2022-09-09T00:43:57;12.32;;;6.88;;
38629;SDS011;24384;51.988;4.644;2022-09-09T00:54:51;12.80;;;6.82;;
38629;SDS011;24384;51.988;4.644;2022-09-09T00:57:28;12.55;;;7.18;;
38629;SDS011;24384;51.988;4.644;2022-09-09T01:05:36;11.88;;;6.72;;
38629;SDS011;24384;51.988;4.644;2022-09-09T01:10:50;13.23;;;6.65;;
38629;SDS011;24384;51.988;4.644;2022-09-09T01:13:27;10.40;;;6.60;;
38629;SDS011;24384;51.988;4.644;2022-09-09T01:15:58;10.15;;;6.18;;
38629;SDS011;24384;51.988;4.644;2022-09-09T01:18:27;10.20;;;6.25;;
38629;SDS011;24384;51.988;4.644;2022-09-09T01:23:51;10.38;;;6.82;;
38629;SDS011;24384;51.988;4.644;2022-09-09T01:26:26;8.85;;;5.95;;
38629;SDS011;24384;51.988;4.644;2022-09-09T01:28:57;9.88;;;5.90;;
38629;SDS011;24384;51.988;4.644;2022-09-09T01:34:19;9.48;;;6.13;;
38629;SDS011;24384;51.988;4.644;2022-09-09T01:36:47;11.57;;;6.32;;
38629;SDS011;24384;51.988;4.644;2022-09-09T01:39:15;10.52;;;5.63;;
38629;SDS011;24384;51.988;4.644;2022-09-09T01:41:40;11.15;;;5.80;;
38629;SDS011;24384;51.988;4.644;2022-09-09T01:44:06;12.50;;;5.75;;
38629;SDS011;24384;51.988;4.644;2022-09-09T01:46:33;8.75;;;5.53;;
38629;SDS011;24384;51.988;4.644;2022-09-09T01:48:58;8.85;;;4.70;;
38629;SDS011;24384;51.988;4.644;2022-09-09T01:51:26;10.55;;;5.57;;
38629;SDS011;24384;51.988;4.644;2022-09-09T01:53:52;11.65;;;5.43;;
38629;SDS011;24384;51.988;4.644;2022-09-09T02:03:58;7.68;;;4.72;;
38629;SDS011;24384;51.988;4.644;2022-09-09T02:06:35;13.43;;;4.78;;
38629;SDS011;24384;51.988;4.644;2022-09-09T02:09:05;10.88;;;4.90;;
38629;SDS011;24384;51.988;4.644;2022-09-09T02:11:33;10.10;;;5.00;;
38629;SDS011;24384;51.988;4.644;2022-09-09T02:14:04;8.77;;;4.53;;
38629;SDS011;24384;51.988;4.644;2022-09-09T02:19:37;9.43;;;5.00;;
38629;SDS011;24384;51.988;4.644;2022-09-09T02:22:09;9.50;;;4.50;;
38629;SDS011;24384;51.988;4.644;2022-09-09T02:24:36;12.32;;;4.95;;
38629;SDS011;24384;51.988;4.644;2022-09-09T02:27:04;11.13;;;4.88;;
38629;SDS011;24384;51.988;4.644;2022-09-09T02:29:34;11.80;;;4.78;;
38629;SDS011;24384;51.988;4.644;2022-09-09T02:32:03;11.90;;;5.18;;
38629;SDS011;24384;51.988;4.644;2022-09-09T02:34:33;14.68;;;5.75;;
38629;SDS011;24384;51.988;4.644;2022-09-09T02:37:05;10.60;;;5.18;;
38629;SDS011;24384;51.988;4.644;2022-09-09T02:39:33;9.30;;;5.07;;
38629;SDS011;24384;51.988;4.644;2022-09-09T02:41:58;14.35;;;5.72;;
38629;SDS011;24384;51.988;4.644;2022-09-09T02:44:24;9.98;;;5.75;;
38629;SDS011;24384;51.988;4.644;2022-09-09T02:55:04;12.25;;;5.60;;
38629;SDS011;24384;51.988;4.644;2022-09-09T02:57:37;16.20;;;5.82;;
38629;SDS011;24384;51.988;4.644;2022-09-09T03:00:04;13.38;;;5.93;;
38629;SDS011;24384;51.988;4.644;2022-09-09T03:02:30;11.00;;;6.80;;
38629;SDS011;24384;51.988;4.644;2022-09-09T03:04:55;12.40;;;6.40;;
38629;SDS011;24384;51.988;4.644;2022-09-09T03:07:21;11.70;;;6.30;;
38629;SDS011;24384;51.988;4.644;2022-09-09T03:09:46;14.98;;;6.13;;
38629;SDS011;24384;51.988;4.644;2022-09-09T03:12:12;12.48;;;5.75;;
38629;SDS011;24384;51.988;4.644;2022-09-09T03:14:38;11.68;;;5.72;;
38629;SDS011;24384;51.988;4.644;2022-09-09T03:17:04;10.18;;;5.78;;
38629;SDS011;24384;51.988;4.644;2022-09-09T03:19:30;10.95;;;5.30;;
38629;SDS011;24384;51.988;4.644;2022-09-09T03:21:56;11.40;;;6.03;;
38629;SDS011;24384;51.988;4.644;2022-09-09T03:24:23;13.90;;;5.47;;
38629;SDS011;24384;51.988;4.644;2022-09-09T03:26:48;11.77;;;5.78;;
38629;SDS011;24384;51.988;4.644;2022-09-09T03:29:15;12.10;;;5.82;;
38629;SDS011;24384;51.988;4.644;2022-09-09T03:31:42;9.25;;;6.13;;
38629;SDS011;24384;51.988;4.644;2022-09-09T03:34:07;16.63;;;6.70;;
38629;SDS011;24384;51.988;4.644;2022-09-09T03:36:33;12.48;;;6.03;;
38629;SDS011;24384;51.988;4.644;2022-09-09T03:38:58;10.38;;;6.47;;
38629;SDS011;24384;51.988;4.644;2022-09-09T03:41:25;12.85;;;6.55;;
38629;SDS011;24384;51.988;4.644;2022-09-09T03:43:51;15.10;;;6.60;;
38629;SDS011;24384;51.988;4.644;2022-09-09T03:46:17;12.52;;;6.20;;
38629;SDS011;24384;51.988;4.644;2022-09-09T03:48:43;13.77;;;6.07;;
38629;SDS011;24384;51.988;4.644;2022-09-09T03:51:09;13.70;;;5.57;;
38629;SDS011;24384;51.988;4.644;2022-09-09T03:53:35;8.90;;;5.15;;
38629;SDS011;24384;51.988;4.644;2022-09-09T03:56:02;12.00;;;5.57;;
38629;SDS011;24384;51.988;4.644;2022-09-09T03:58:29;12.88;;;6.80;;
38629;SDS011;24384;51.988;4.644;2022-09-09T04:00:58;13.25;;;5.80;;
38629;SDS011;24384;51.988;4.644;2022-09-09T04:03:29;10.73;;;5.43;;
38629;SDS011;24384;51.988;4.644;2022-09-09T04:05:55;12.70;;;5.32;;
38629;SDS011;24384;51.988;4.644;2022-09-09T04:08:23;10.10;;;4.93;;
38629;SDS011;24384;51.988;4.644;2022-09-09T04:10:51;11.00;;;4.32;;
38629;SDS011;24384;51.988;4.644;2022-09-09T04:13:20;9.48;;;4.65;;
38629;SDS011;24384;51.988;4.644;2022-09-09T04:15:55;9.30;;;4.50;;
38629;SDS011;24384;51.988;4.644;2022-09-09T04:18:23;12.13;;;4.80;;
38629;SDS011;24384;51.988;4.644;2022-09-09T04:20:50;9.98;;;4.13;;
38629;SDS011;24384;51.988;4.644;2022-09-09T04:23:16;11.40;;;4.45;;
38629;SDS011;24384;51.988;4.644;2022-09-09T04:25:49;8.65;;;3.42;;
38629;SDS011;24384;51.988;4.644;2022-09-09T04:28:17;10.63;;;4.10;;
38629;SDS011;24384;51.988;4.644;2022-09-09T04:30:44;11.00;;;4.38;;
38629;SDS011;24384;51.988;4.644;2022-09-09T04:33:09;10.45;;;3.58;;
38629;SDS011;24384;51.988;4.644;2022-09-09T04:35:36;9.00;;;3.58;;
38629;SDS011;24384;51.988;4.644;2022-09-09T04:38:03;7.20;;;3.55;;
38629;SDS011;24384;51.988;4.644;2022-09-09T04:40:29;8.95;;;3.40;;
38629;SDS011;24384;51.988;4.644;2022-09-09T04:42:57;10.23;;;3.45;;
38629;SDS011;24384;51.988;4.644;2022-09-09T04:45:23;11.18;;;3.50;;
38629;SDS011;24384;51.988;4.644;2022-09-09T04:47:48;7.18;;;3.08;;
38629;SDS011;24384;51.988;4.644;2022-09-09T04:50:14;9.60;;;3.28;;
38629;SDS011;24384;51.988;4.644;2022-09-09T04:52:39;7.65;;;3.30;;
38629;SDS011;24384;51.988;4.644;2022-09-09T04:55:06;7.75;;;3.50;;
38629;SDS011;24384;51.988;4.644;2022-09-09T04:57:32;9.32;;;3.47;;
38629;SDS011;24384;51.988;4.644;2022-09-09T04:59:58;13.73;;;3.33;;
38629;SDS011;24384;51.988;4.644;2022-09-09T05:02:25;10.45;;;3.35;;
38629;SDS011;24384;51.988;4.644;2022-09-09T05:04:51;12.43;;;4.05;;
38629;SDS011;24384;51.988;4.644;2022-09-09T05:07:16;8.73;;;3.65;;
38629;SDS011;24384;51.988;4.644;2022-09-09T05:09:42;8.50;;;4.00;;
38629;SDS011;24384;51.988;4.644;2022-09-09T05:12:08;9.60;;;3.67;;
38629;SDS011;24384;51.988;4.644;2022-09-09T05:14:33;11.68;;;3.60;;
38629;SDS011;24384;51.988;4.644;2022-09-09T05:17:02;11.75;;;3.20;;
38629;SDS011;24384;51.988;4.644;2022-09-09T05:19:28;9.48;;;3.53;;
38629;SDS011;24384;51.988;4.644;2022-09-09T05:21:53;9.07;;;3.40;;
38629;SDS011;24384;51.988;4.644;2022-09-09T05:24:19;10.07;;;3.67;;
38629;SDS011;24384;51.988;4.644;2022-09-09T05:26:45;12.55;;;3.50;;
38629;SDS011;24384;51.988;4.644;2022-09-09T05:29:10;11.48;;;3.80;;
38629;SDS011;24384;51.988;4.644;2022-09-09T05:31:35;12.95;;;4.13;;
38629;SDS011;24384;51.988;4.644;2022-09-09T05:34:01;8.98;;;3.47;;
38629;SDS011;24384;51.988;4.644;2022-09-09T05:36:27;9.27;;;3.47;;
38629;SDS011;24384;51.988;4.644;2022-09-09T05:38:52;11.60;;;3.67;;
38629;SDS011;24384;51.988;4.644;2022-09-09T05:41:21;11.93;;;3.47;;
38629;SDS011;24384;51.988;4.644;2022-09-09T05:43:48;9.60;;;3.33;;
38629;SDS011;24384;51.988;4.644;2022-09-09T05:46:15;8.63;;;3.33;;
38629;SDS011;24384;51.988;4.644;2022-09-09T05:48:43;11.63;;;3.00;;
38629;SDS011;24384;51.988;4.644;2022-09-09T05:53:42;16.23;;;3.72;;
38629;SDS011;24384;51.988;4.644;2022-09-09T05:56:09;13.48;;;3.13;;
38629;SDS011;24384;51.988;4.644;2022-09-09T05:58:39;14.70;;;3.20;;
38629;SDS011;24384;51.988;4.644;2022-09-09T06:01:09;14.13;;;3.08;;
38629;SDS011;24384;51.988;4.644;2022-09-09T06:03:37;8.35;;;2.80;;
38629;SDS011;24384;51.988;4.644;2022-09-09T06:06:05;8.82;;;2.95;;
38629;SDS011;24384;51.988;4.644;2022-09-09T06:08:36;13.05;;;3.40;;
38629;SDS011;24384;51.988;4.644;2022-09-09T06:11:06;9.88;;;2.83;;
38629;SDS011;24384;51.988;4.644;2022-09-09T06:13:34;10.20;;;2.75;;
38629;SDS011;24384;51.988;4.644;2022-09-09T06:16:00;9.48;;;2.75;;
38629;SDS011;24384;51.988;4.644;2022-09-09T06:18:25;13.73;;;3.38;;
38629;SDS011;24384;51.988;4.644;2022-09-09T06:20:58;11.60;;;3.00;;
38629;SDS011;24384;51.988;4.644;2022-09-09T06:23:25;9.60;;;3.05;;
38629;SDS011;24384;51.988;4.644;2022-09-09T06:25:52;11.98;;;2.88;;
38629;SDS011;24384;51.988;4.644;2022-09-09T06:28:30;10.35;;;3.10;;
38629;SDS011;24384;51.988;4.644;2022-09-09T06:30:57;14.15;;;3.30;;
38629;SDS011;24384;51.988;4.644;2022-09-09T06:33:23;18.42;;;3.28;;
38629;SDS011;24384;51.988;4.644;2022-09-09T06:35:52;13.10;;;2.45;;
38629;SDS011;24384;51.988;4.644;2022-09-09T06:38:18;8.57;;;3.17;;
38629;SDS011;24384;51.988;4.644;2022-09-09T06:40:50;11.02;;;3.15;;
38629;SDS011;24384;51.988;4.644;2022-09-09T06:43:22;10.98;;;3.83;;
38629;SDS011;24384;51.988;4.644;2022-09-09T06:45:58;11.45;;;3.60;;
38629;SDS011;24384;51.988;4.644;2022-09-09T06:48:28;13.73;;;3.53;;
38629;SDS011;24384;51.988;4.644;2022-09-09T06:51:00;13.25;;;3.83;;
38629;SDS011;24384;51.988;4.644;2022-09-09T06:53:30;13.10;;;3.90;;
38629;SDS011;24384;51.988;4.644;2022-09-09T06:55:58;8.32;;;4.05;;
38629;SDS011;24384;51.988;4.644;2022-09-09T06:58:23;13.80;;;3.90;;
38629;SDS011;24384;51.988;4.644;2022-09-09T07:00:49;15.07;;;4.22;;
38629;SDS011;24384;51.988;4.644;2022-09-09T07:03:14;10.45;;;4.03;;
38629;SDS011;24384;51.988;4.644;2022-09-09T07:05:40;11.43;;;4.28;;
38629;SDS011;24384;51.988;4.644;2022-09-09T07:08:05;11.35;;;4.40;;
38629;SDS011;24384;51.988;4.644;2022-09-09T07:10:31;13.52;;;4.90;;
38629;SDS011;24384;51.988;4.644;2022-09-09T07:12:56;11.45;;;4.95;;
38629;SDS011;24384;51.988;4.644;2022-09-09T07:15:22;18.38;;;4.90;;
38629;SDS011;24384;51.988;4.644;2022-09-09T07:17:49;11.23;;;5.03;;
38629;SDS011;24384;51.988;4.644;2022-09-09T07:20:14;13.02;;;4.47;;
38629;SDS011;24384;51.988;4.644;2022-09-09T07:22:40;14.70;;;4.82;;
38629;SDS011;24384;51.988;4.644;2022-09-09T07:25:07;15.02;;;5.15;;
38629;SDS011;24384;51.988;4.644;2022-09-09T07:27:32;12.65;;;4.63;;
38629;SDS011;24384;51.988;4.644;2022-09-09T07:29:58;11.23;;;4.43;;
38629;SDS011;24384;51.988;4.644;2022-09-09T07:32:24;13.73;;;4.85;;
38629;SDS011;24384;51.988;4.644;2022-09-09T07:34:50;10.90;;;4.97;;
38629;SDS011;24384;51.988;4.644;2022-09-09T07:37:16;11.50;;;5.47;;
38629;SDS011;24384;51.988;4.644;2022-09-09T07:39:42;15.40;;;5.57;;
38629;SDS011;24384;51.988;4.644;2022-09-09T07:42:07;11.85;;;4.35;;
38629;SDS011;24384;51.988;4.644;2022-09-09T07:44:34;13.02;;;5.20;;
38629;SDS011;24384;51.988;4.644;2022-09-09T07:47:01;12.20;;;5.00;;
38629;SDS011;24384;51.988;4.644;2022-09-09T07:49:26;10.77;;;5.25;;
38629;SDS011;24384;51.988;4.644;2022-09-09T07:51:53;14.18;;;5.55;;
38629;SDS011;24384;51.988;4.644;2022-09-09T07:54:19;12.90;;;4.72;;
38629;SDS011;24384;51.988;4.644;2022-09-09T07:56:45;11.55;;;4.47;;
38629;SDS011;24384;51.988;4.644;2022-09-09T07:59:12;11.77;;;4.93;;
38629;SDS011;24384;51.988;4.644;2022-09-09T08:04:06;10.48;;;5.15;;
38629;SDS011;24384;51.988;4.644;2022-09-09T08:06:37;12.05;;;5.20;;
38629;SDS011;24384;51.988;4.644;2022-09-09T08:09:04;14.17;;;5.57;;
38629;SDS011;24384;51.988;4.644;2022-09-09T08:11:30;13.07;;;5.72;;
38629;SDS011;24384;51.988;4.644;2022-09-09T08:13:58;11.15;;;4.78;;
38629;SDS011;24384;51.988;4.644;2022-09-09T08:16:24;12.45;;;5.38;;
38629;SDS011;24384;51.988;4.644;2022-09-09T08:18:51;9.15;;;4.65;;
38629;SDS011;24384;51.988;4.644;2022-09-09T08:21:20;12.32;;;5.28;;
38629;SDS011;24384;51.988;4.644;2022-09-09T08:23:51;13.82;;;4.97;;
38629;SDS011;24384;51.988;4.644;2022-09-09T08:26:19;10.88;;;4.68;;
38629;SDS011;24384;51.988;4.644;2022-09-09T08:28:49;12.95;;;4.80;;
38629;SDS011;24384;51.988;4.644;2022-09-09T08:31:20;17.35;;;4.43;;
38629;SDS011;24384;51.988;4.644;2022-09-09T08:33:48;10.52;;;3.53;;
38629;SDS011;24384;51.988;4.644;2022-09-09T08:36:14;11.23;;;4.13;;
38629;SDS011;24384;51.988;4.644;2022-09-09T08:38:42;17.35;;;4.47;;
38629;SDS011;24384;51.988;4.644;2022-09-09T08:43:43;12.88;;;4.50;;
38629;SDS011;24384;51.988;4.644;2022-09-09T08:46:33;9.02;;;3.88;;
38629;SDS011;24384;51.988;4.644;2022-09-09T08:51:56;14.82;;;3.63;;
38629;SDS011;24384;51.988;4.644;2022-09-09T08:54:22;11.98;;;3.55;;
38629;SDS011;24384;51.988;4.644;2022-09-09T08:56:49;11.77;;;4.43;;
38629;SDS011;24384;51.988;4.644;2022-09-09T08:59:16;18.60;;;4.35;;
38629;SDS011;24384;51.988;4.644;2022-09-09T09:01:50;15.32;;;4.90;;
38629;SDS011;24384;51.988;4.644;2022-09-09T09:11:03;17.33;;;4.60;;
38629;SDS011;24384;51.988;4.644;2022-09-09T09:13:01;11.57;;;4.32;;
38629;SDS011;24384;51.988;4.644;2022-09-09T09:15:30;13.77;;;4.57;;
38629;SDS011;24384;51.988;4.644;2022-09-09T09:18:02;13.02;;;4.45;;
38629;SDS011;24384;51.988;4.644;2022-09-09T09:23:21;9.75;;;4.20;;
38629;SDS011;24384;51.988;4.644;2022-09-09T09:25:49;9.27;;;4.30;;
38629;SDS011;24384;51.988;4.644;2022-09-09T09:28:24;15.82;;;4.07;;
38629;SDS011;24384;51.988;4.644;2022-09-09T09:35:52;11.45;;;3.90;;
38629;SDS011;24384;51.988;4.644;2022-09-09T09:38:23;10.63;;;3.83;;
38629;SDS011;24384;51.988;4.644;2022-09-09T09:40:57;8.98;;;3.75;;
38629;SDS011;24384;51.988;4.644;2022-09-09T09:43:30;12.00;;;4.20;;
38629;SDS011;24384;51.988;4.644;2022-09-09T09:45:58;13.15;;;3.70;;
38629;SDS011;24384;51.988;4.644;2022-09-09T09:48:24;11.70;;;3.85;;
38629;SDS011;24384;51.988;4.644;2022-09-09T09:50:55;10.93;;;3.63;;
38629;SDS011;24384;51.988;4.644;2022-09-09T09:53:25;11.75;;;3.75;;
38629;SDS011;24384;51.988;4.644;2022-09-09T09:55:59;12.88;;;3.47;;
38629;SDS011;24384;51.988;4.644;2022-09-09T09:58:26;12.48;;;3.72;;
38629;SDS011;24384;51.988;4.644;2022-09-09T10:00:56;10.70;;;3.55;;
38629;SDS011;24384;51.988;4.644;2022-09-09T10:03:22;13.10;;;3.15;;
38629;SDS011;24384;51.988;4.644;2022-09-09T10:05:48;8.90;;;3.15;;
38629;SDS011;24384;51.988;4.644;2022-09-09T10:08:15;10.85;;;2.90;;
38629;SDS011;24384;51.988;4.644;2022-09-09T10:15:55;7.93;;;3.00;;
38629;SDS011;24384;51.988;4.644;2022-09-09T10:29:24;10.50;;;3.38;;
38629;SDS011;24384;51.988;4.644;2022-09-09T10:32:38;9.07;;;2.42;;
38629;SDS011;24384;51.988;4.644;2022-09-09T10:35:10;6.10;;;2.38;;
38629;SDS011;24384;51.988;4.644;2022-09-09T10:37:42;9.32;;;3.10;;
38629;SDS011;24384;51.988;4.644;2022-09-09T10:43:53;10.88;;;3.15;;
38629;SDS011;24384;51.988;4.644;2022-09-09T11:00:13;8.90;;;2.97;;
38629;SDS011;24384;51.988;4.644;2022-09-09T11:02:42;11.23;;;3.30;;
38629;SDS011;24384;51.988;4.644;2022-09-09T11:05:21;11.15;;;3.45;;
38629;SDS011;24384;51.988;4.644;2022-09-09T11:08:09;6.88;;;3.35;;
38629;SDS011;24384;51.988;4.644;2022-09-09T11:10:51;9.95;;;3.22;;
38629;SDS011;24384;51.988;4.644;2022-09-09T11:13:33;11.60;;;3.42;;
38629;SDS011;24384;51.988;4.644;2022-09-09T11:16:12;7.10;;;2.90;;
38629;SDS011;24384;51.988;4.644;2022-09-09T11:19:04;6.90;;;2.70;;
38629;SDS011;24384;51.988;4.644;2022-09-09T11:21:48;10.05;;;3.05;;
38629;SDS011;24384;51.988;4.644;2022-09-09T11:26:56;8.27;;;3.05;;
38629;SDS011;24384;51.988;4.644;2022-09-09T11:29:33;9.90;;;3.20;;
38629;SDS011;24384;51.988;4.644;2022-09-09T11:45:40;10.98;;;3.67;;
38629;SDS011;24384;51.988;4.644;2022-09-09T11:48:27;8.25;;;3.10;;
38629;SDS011;24384;51.988;4.644;2022-09-09T11:50:58;9.65;;;4.00;;
38629;SDS011;24384;51.988;4.644;2022-09-09T11:53:25;12.43;;;4.75;;
38629;SDS011;24384;51.988;4.644;2022-09-09T11:56:34;9.73;;;4.18;;
38629;SDS011;24384;51.988;4.644;2022-09-09T11:58:59;8.32;;;4.38;;
38629;SDS011;24384;51.988;4.644;2022-09-09T12:01:37;13.10;;;4.53;;
38629;SDS011;24384;51.988;4.644;2022-09-09T12:09:27;8.13;;;4.85;;
38629;SDS011;24384;51.988;4.644;2022-09-09T12:12:07;7.60;;;3.95;;
38629;SDS011;24384;51.988;4.644;2022-09-09T12:14:44;8.43;;;4.55;;
38629;SDS011;24384;51.988;4.644;2022-09-09T12:17:25;10.75;;;4.68;;
38629;SDS011;24384;51.988;4.644;2022-09-09T12:20:03;8.45;;;4.28;;
38629;SDS011;24384;51.988;4.644;2022-09-09T12:22:47;11.50;;;4.10;;
38629;SDS011;24384;51.988;4.644;2022-09-09T12:28:19;13.05;;;4.68;;
38629;SDS011;24384;51.988;4.644;2022-09-09T12:33:23;14.07;;;5.25;;
38629;SDS011;24384;51.988;4.644;2022-09-09T12:35:51;23.52;;;5.72;;
38629;SDS011;24384;51.988;4.644;2022-09-09T12:38:35;14.40;;;5.70;;
38629;SDS011;24384;51.988;4.644;2022-09-09T12:41:04;14.00;;;6.22;;
38629;SDS011;24384;51.988;4.644;2022-09-09T12:43:29;20.48;;;5.97;;
38629;SDS011;24384;51.988;4.644;2022-09-09T12:46:00;7.90;;;4.22;;
38629;SDS011;24384;51.988;4.644;2022-09-09T12:48:30;9.20;;;4.20;;
38629;SDS011;24384;51.988;4.644;2022-09-09T12:50:59;7.97;;;3.95;;
38629;SDS011;24384;51.988;4.644;2022-09-09T12:53:58;5.47;;;3.10;;
38629;SDS011;24384;51.988;4.644;2022-09-09T12:56:24;9.83;;;4.00;;
38629;SDS011;24384;51.988;4.644;2022-09-09T12:58:52;11.68;;;3.60;;
38629;SDS011;24384;51.988;4.644;2022-09-09T13:01:21;8.05;;;3.30;;
38629;SDS011;24384;51.988;4.644;2022-09-09T13:03:51;8.77;;;3.40;;
38629;SDS011;24384;51.988;4.644;2022-09-09T13:08:53;10.50;;;3.55;;
38629;SDS011;24384;51.988;4.644;2022-09-09T13:11:24;6.20;;;2.72;;
38629;SDS011;24384;51.988;4.644;2022-09-09T13:13:51;6.40;;;2.50;;
38629;SDS011;24384;51.988;4.644;2022-09-09T13:16:25;8.30;;;2.88;;
38629;SDS011;24384;51.988;4.644;2022-09-09T13:18:56;9.23;;;2.70;;
38629;SDS011;24384;51.988;4.644;2022-09-09T13:21:36;9.38;;;3.15;;
38629;SDS011;24384;51.988;4.644;2022-09-09T13:24:03;6.95;;;2.50;;
38629;SDS011;24384;51.988;4.644;2022-09-09T13:26:32;4.32;;;1.67;;
38629;SDS011;24384;51.988;4.644;2022-09-09T13:29:18;8.50;;;2.20;;
38629;SDS011;24384;51.988;4.644;2022-09-09T13:32:06;6.05;;;2.08;;
38629;SDS011;24384;51.988;4.644;2022-09-09T13:34:49;9.57;;;2.63;;
38629;SDS011;24384;51.988;4.644;2022-09-09T13:37:20;9.55;;;2.53;;
38629;SDS011;24384;51.988;4.644;2022-09-09T13:40:04;7.68;;;1.92;;
38629;SDS011;24384;51.988;4.644;2022-09-09T13:42:35;6.00;;;1.88;;
38629;SDS011;24384;51.988;4.644;2022-09-09T13:45:04;6.05;;;2.05;;
38629;SDS011;24384;51.988;4.644;2022-09-09T13:47:31;7.60;;;2.70;;
38629;SDS011;24384;51.988;4.644;2022-09-09T13:49:58;8.27;;;2.15;;
38629;SDS011;24384;51.988;4.644;2022-09-09T13:52:24;10.65;;;2.00;;
38629;SDS011;24384;51.988;4.644;2022-09-09T13:54:52;10.88;;;2.13;;
38629;SDS011;24384;51.988;4.644;2022-09-09T13:57:20;6.70;;;1.92;;
38629;SDS011;24384;51.988;4.644;2022-09-09T13:59:50;8.27;;;2.00;;
38629;SDS011;24384;51.988;4.644;2022-09-09T14:02:16;9.35;;;2.08;;
38629;SDS011;24384;51.988;4.644;2022-09-09T14:04:42;5.82;;;1.52;;
38629;SDS011;24384;51.988;4.644;2022-09-09T14:07:09;7.22;;;1.40;;
38629;SDS011;24384;51.988;4.644;2022-09-09T14:09:37;8.60;;;1.70;;
38629;SDS011;24384;51.988;4.644;2022-09-09T14:12:04;10.90;;;2.00;;
38629;SDS011;24384;51.988;4.644;2022-09-09T14:14:29;6.72;;;1.95;;
38629;SDS011;24384;51.988;4.644;2022-09-09T14:16:55;7.13;;;2.40;;
38629;SDS011;24384;51.988;4.644;2022-09-09T14:19:20;7.40;;;2.42;;
38629;SDS011;24384;51.988;4.644;2022-09-09T14:21:46;5.55;;;2.25;;
38629;SDS011;24384;51.988;4.644;2022-09-09T14:24:11;7.95;;;2.67;;
38629;SDS011;24384;51.988;4.644;2022-09-09T14:26:37;6.03;;;2.05;;
38629;SDS011;24384;51.988;4.644;2022-09-09T14:29:03;6.03;;;2.40;;
38629;SDS011;24384;51.988;4.644;2022-09-09T14:31:28;10.45;;;2.80;;
38629;SDS011;24384;51.988;4.644;2022-09-09T14:33:54;10.88;;;3.08;;
38629;SDS011;24384;51.988;4.644;2022-09-09T14:36:19;8.75;;;2.53;;
38629;SDS011;24384;51.988;4.644;2022-09-09T14:38:45;8.73;;;2.78;;
38629;SDS011;24384;51.988;4.644;2022-09-09T14:41:12;6.28;;;2.40;;
38629;SDS011;24384;51.988;4.644;2022-09-09T14:43:41;8.40;;;2.63;;
38629;SDS011;24384;51.988;4.644;2022-09-09T14:46:08;5.32;;;2.00;;
38629;SDS011;24384;51.988;4.644;2022-09-09T14:48:38;7.88;;;2.72;;
38629;SDS011;24384;51.988;4.644;2022-09-09T14:51:09;9.23;;;2.30;;
38629;SDS011;24384;51.988;4.644;2022-09-09T14:53:37;8.65;;;2.30;;
38629;SDS011;24384;51.988;4.644;2022-09-09T14:56:04;7.93;;;2.67;;
38629;SDS011;24384;51.988;4.644;2022-09-09T14:58:33;5.35;;;1.83;;
38629;SDS011;24384;51.988;4.644;2022-09-09T15:01:06;6.47;;;1.70;;
38629;SDS011;24384;51.988;4.644;2022-09-09T15:03:34;8.05;;;1.60;;
38629;SDS011;24384;51.988;4.644;2022-09-09T15:06:10;5.57;;;1.40;;
38629;SDS011;24384;51.988;4.644;2022-09-09T15:08:37;4.10;;;1.05;;
38629;SDS011;24384;51.988;4.644;2022-09-09T15:11:05;6.13;;;1.17;;
38629;SDS011;24384;51.988;4.644;2022-09-09T15:13:32;6.38;;;1.35;;
38629;SDS011;24384;51.988;4.644;2022-09-09T15:16:13;4.63;;;1.17;;
38629;SDS011;24384;51.988;4.644;2022-09-09T15:18:39;7.60;;;1.30;;
38629;SDS011;24384;51.988;4.644;2022-09-09T15:21:08;4.45;;;1.40;;
38629;SDS011;24384;51.988;4.644;2022-09-09T15:23:38;6.28;;;1.35;;
38629;SDS011;24384;51.988;4.644;2022-09-09T15:26:04;5.72;;;1.13;;
38629;SDS011;24384;51.988;4.644;2022-09-09T15:28:34;6.90;;;1.35;;
38629;SDS011;24384;51.988;4.644;2022-09-09T15:31:04;7.10;;;1.50;;
38629;SDS011;24384;51.988;4.644;2022-09-09T15:33:32;8.30;;;1.30;;
38629;SDS011;24384;51.988;4.644;2022-09-09T15:35:58;4.75;;;1.23;;
38629;SDS011;24384;51.988;4.644;2022-09-09T15:38:24;7.18;;;1.35;;
38629;SDS011;24384;51.988;4.644;2022-09-09T15:40:53;4.57;;;1.33;;
38629;SDS011;24384;51.988;4.644;2022-09-09T15:43:19;5.05;;;1.70;;
38629;SDS011;24384;51.988;4.644;2022-09-09T15:45:45;6.78;;;1.60;;
38629;SDS011;24384;51.988;4.644;2022-09-09T15:48:13;5.53;;;1.90;;
38629;SDS011;24384;51.988;4.644;2022-09-09T15:50:39;9.13;;;2.78;;
38629;SDS011;24384;51.988;4.644;2022-09-09T15:53:04;12.05;;;3.03;;
38629;SDS011;24384;51.988;4.644;2022-09-09T15:55:31;11.70;;;2.83;;
38629;SDS011;24384;51.988;4.644;2022-09-09T15:57:56;11.65;;;3.13;;
38629;SDS011;24384;51.988;4.644;2022-09-09T16:00:22;7.63;;;2.63;;
38629;SDS011;24384;51.988;4.644;2022-09-09T16:02:49;10.73;;;3.53;;
38629;SDS011;24384;51.988;4.644;2022-09-09T16:05:14;9.40;;;3.25;;
38629;SDS011;24384;51.988;4.644;2022-09-09T16:07:40;9.10;;;3.50;;
38629;SDS011;24384;51.988;4.644;2022-09-09T16:10:07;11.32;;;3.42;;
38629;SDS011;24384;51.988;4.644;2022-09-09T16:12:33;9.73;;;3.83;;
38629;SDS011;24384;51.988;4.644;2022-09-09T16:14:59;8.45;;;3.80;;
38629;SDS011;24384;51.988;4.644;2022-09-09T16:17:24;13.93;;;5.07;;
38629;SDS011;24384;51.988;4.644;2022-09-09T16:19:50;15.82;;;5.15;;
38629;SDS011;24384;51.988;4.644;2022-09-09T16:22:15;13.80;;;5.47;;
38629;SDS011;24384;51.988;4.644;2022-09-09T16:24:42;12.60;;;4.80;;
38629;SDS011;24384;51.988;4.644;2022-09-09T16:27:12;12.50;;;5.00;;
38629;SDS011;24384;51.988;4.644;2022-09-09T16:29:47;9.57;;;4.70;;
38629;SDS011;24384;51.988;4.644;2022-09-09T16:32:14;11.43;;;5.03;;
38629;SDS011;24384;51.988;4.644;2022-09-09T16:34:44;8.93;;;3.92;;
38629;SDS011;24384;51.988;4.644;2022-09-09T16:37:13;12.63;;;5.05;;
38629;SDS011;24384;51.988;4.644;2022-09-09T16:39:45;14.50;;;5.25;;
38629;SDS011;24384;51.988;4.644;2022-09-09T16:42:23;11.43;;;4.72;;
38629;SDS011;24384;51.988;4.644;2022-09-09T16:44:55;8.32;;;4.32;;
38629;SDS011;24384;51.988;4.644;2022-09-09T16:47:37;10.85;;;4.35;;
38629;SDS011;24384;51.988;4.644;2022-09-09T16:50:13;9.90;;;4.35;;
38629;SDS011;24384;51.988;4.644;2022-09-09T16:52:59;9.45;;;4.63;;
38629;SDS011;24384;51.988;4.644;2022-09-09T16:55:27;10.95;;;4.45;;
38629;SDS011;24384;51.988;4.644;2022-09-09T16:57:53;6.20;;;3.17;;
38629;SDS011;24384;51.988;4.644;2022-09-09T17:00:19;8.77;;;2.78;;
38629;SDS011;24384;51.988;4.644;2022-09-09T17:02:44;8.75;;;3.25;;
38629;SDS011;24384;51.988;4.644;2022-09-09T17:05:10;7.18;;;3.30;;
38629;SDS011;24384;51.988;4.644;2022-09-09T17:07:36;8.68;;;3.22;;
38629;SDS011;24384;51.988;4.644;2022-09-09T17:10:01;6.68;;;3.95;;
38629;SDS011;24384;51.988;4.644;2022-09-09T17:12:27;8.65;;;4.30;;
38629;SDS011;24384;51.988;4.644;2022-09-09T17:14:52;9.18;;;4.53;;
38629;SDS011;24384;51.988;4.644;2022-09-09T17:17:20;8.20;;;4.70;;